FlightSource - Aviation Photo Database

World Wide Airport Lookup


Search by ICAO
Or
Search by City

FlightSource.ca - Aviation Photo Database - Afonso Pena Airport Information
Airport Identification
Name: Afonso Pena Airport
ICAO: SBCT
IATA: CWB
Airport Location
City: Curitiba
Region: PR
Country: Brazil
Continent: South America
Latitude: -25.5285
Longitude: -49.1758
Airport Information
Type: Medium Airport
Elevation: 2988 Feet ASL
Flight Status: SBCT
More Info: SBCT
Airport Weather    
Metar: SBCT 210800Z 13003KT 9999 BKN009 12/12 Q1024
TAF:


Advertisement